Data Archive--August, 2002

Date Time Current Temp Wind Chill High Temp Low Temp Wind Speed Gust Wind Direction Rain Barometer
08/18/2002 12:00 a 76.8 76.8 77.1 76.7 0.0 0.0 --- 0.00 29.780
08/18/2002 12:30 a 76.7 76.7 76.9 76.5 0.0 0.0 --- 0.00 29.781
08/18/2002 1:00 a 76.7 76.7 77.0 76.6 0.0 0.0 --- 0.00 29.771
08/18/2002 1:30 a 76.4 76.4 76.7 76.1 0.0 0.0 --- 0.00 29.764
08/18/2002 2:00 a 76.0 76.0 76.3 75.8 0.0 0.0 --- 0.00 29.760
08/18/2002 2:30 a 75.8 75.8 76.1 75.1 0.0 0.0 --- 0.00 29.752
08/18/2002 3:00 a 74.9 74.9 75.1 74.6 0.0 0.0 --- 0.00 29.747
08/18/2002 3:30 a 74.5 74.5 74.8 74.3 0.0 0.0 --- 0.00 29.744
08/18/2002 4:00 a 74.3 74.3 74.5 74.0 0.0 0.0 --- 0.00 29.738
08/18/2002 4:30 a 74.0 74.0 74.3 73.7 0.0 0.0 --- 0.00 29.739
08/18/2002 5:00 a 73.5 73.5 73.8 73.3 0.0 0.0 --- 0.00 29.747
08/18/2002 5:30 a 73.3 73.3 73.5 73.1 0.0 0.0 --- 0.00 29.745
08/18/2002 6:00 a 73.1 73.1 73.4 72.8 0.0 0.0 --- 0.00 29.754
08/18/2002 6:30 a 73.1 73.1 73.3 72.8 0.0 0.0 --- 0.00 29.752
08/18/2002 7:00 a 73.7 73.7 73.9 73.3 0.0 0.0 --- 0.00 29.759
08/18/2002 7:30 a 75.0 75.0 75.9 73.8 0.0 0.0 --- 0.00 29.759
08/18/2002 8:00 a 76.5 76.5 76.9 75.9 0.0 0.0 --- 0.00 29.751
08/18/2002 8:30 a 78.1 78.1 78.9 76.9 0.0 0.0 --- 0.00 29.748
08/18/2002 9:00 a 80.2 80.2 81.3 78.9 0.0 1.0 ESE 0.00 29.753
08/18/2002 9:30 a 82.7 82.7 83.7 81.3 0.0 1.0 --- 0.00 29.754
08/18/2002 10:00 a 84.9 84.9 85.9 83.6 0.0 1.0 ESE 0.00 29.749
08/18/2002 10:30 a 86.6 86.6 87.6 85.7 0.0 1.0 ESE 0.00 29.750
08/18/2002 11:00 a 88.2 88.2 88.9 87.2 0.0 4.0 ENE 0.00 29.741
08/18/2002 11:30 a 89.7 89.7 91.1 88.7 0.0 3.0 ENE 0.00 29.733
08/18/2002 12:00 p 92.3 92.3 93.4 91.0 0.0 3.0 NE 0.00 29.722
08/18/2002 12:30 p 92.9 92.9 94.6 90.6 0.0 3.0 W 0.00 29.713
08/18/2002 1:00 p 92.9 92.9 95.6 91.0 0.0 4.0 NE 0.00 29.711
08/18/2002 1:30 p 94.5 94.5 97.0 92.1 0.0 4.0 E 0.00 29.697
08/18/2002 2:00 p 94.0 94.0 96.2 92.2 0.0 2.0 E 0.00 29.693
08/18/2002 2:30 p 93.7 93.7 95.1 92.5 0.0 4.0 WSW 0.00 29.683
08/18/2002 3:00 p 96.9 96.9 98.3 95.1 0.0 3.0 SSW 0.00 29.681
08/18/2002 3:30 p 96.9 96.9 98.6 95.5 0.0 4.0 WSW 0.00 29.676
08/18/2002 4:00 p 96.6 96.6 97.5 94.9 0.0 3.0 WNW 0.00 29.673
08/18/2002 4:30 p 95.0 95.0 97.7 93.3 0.0 3.0 SW 0.00 29.666
08/18/2002 5:00 p 94.1 94.1 95.5 92.7 0.0 3.0 W 0.00 29.668
08/18/2002 5:30 p 93.5 93.5 94.0 92.8 0.0 3.0 WSW 0.00 29.661
08/18/2002 6:00 p 92.0 92.0 92.7 91.4 0.0 2.0 W 0.00 29.654
08/18/2002 6:30 p 91.0 91.0 92.1 90.1 0.0 2.0 N 0.00 29.656
08/18/2002 7:00 p 89.7 89.7 90.8 88.6 0.0 1.0 --- 0.00 29.664
08/18/2002 7:30 p 87.4 87.4 88.7 86.1 0.0 0.0 --- 0.00 29.664
08/18/2002 8:00 p 85.0 85.0 86.1 83.9 0.0 0.0 --- 0.00 29.666
08/18/2002 8:30 p 83.2 83.2 84.0 82.4 0.0 0.0 --- 0.00 29.674
08/18/2002 9:00 p 81.4 81.4 82.4 80.6 0.0 0.0 --- 0.00 29.679
08/18/2002 9:30 p 79.9 79.9 80.7 79.4 0.0 0.0 --- 0.00 29.691
08/18/2002 10:00 p 78.9 78.9 79.4 78.4 0.0 0.0 --- 0.00 29.698
08/18/2002 10:30 p 78.2 78.2 78.5 78.1 0.0 0.0 --- 0.00 29.698
08/18/2002 11:00 p 77.8 77.8 78.2 77.2 0.0 0.0 --- 0.00 29.698
08/18/2002 11:30 p 76.7 76.7 77.1 76.5 0.0 0.0 --- 0.00 29.697
08/19/2002 12:00 a 76.4 76.4 76.6 75.9 0.0 0.0 --- 0.00 29.702
08/19/2002 12:30 a 75.9 75.9 76.2 75.6 0.0 0.0 --- 0.00 29.707
08/19/2002 1:00 a 76.0 76.0 76.3 75.6 0.0 0.0 --- 0.00 29.705
08/19/2002 1:30 a 75.1 75.1 75.7 74.9 0.0 0.0 --- 0.00 29.704
08/19/2002 2:00 a 75.0 75.0 75.3 74.5 0.0 0.0 --- 0.00 29.707
08/19/2002 2:30 a 74.6 74.6 75.0 74.1 0.0 0.0 --- 0.00 29.710
08/19/2002 3:00 a 74.3 74.3 74.8 73.8 0.0 1.0 --- 0.00 29.712
08/19/2002 3:30 a 73.7 73.7 73.9 73.4 0.0 1.0 SSE 0.00 29.718
08/19/2002 4:00 a 74.4 74.4 75.3 73.9 0.0 2.0 SSE 0.00 29.733
08/19/2002 4:30 a 75.5 75.5 75.9 75.0 0.0 1.0 SSE 0.00 29.738
08/19/2002 5:00 a 75.1 75.1 75.5 74.8 0.0 1.0 --- 0.00 29.745
08/19/2002 5:30 a 75.5 75.5 76.5 73.8 0.0 2.0 SSE 0.00 29.753
08/19/2002 6:00 a 75.6 75.6 78.3 73.5 0.0 0.0 --- 0.00 29.758
08/19/2002 6:30 a 72.6 72.6 73.4 72.0 0.0 0.0 --- 0.00 29.756
08/19/2002 7:00 a 72.0 72.0 72.3 71.7 0.0 0.0 --- 0.00 29.758
08/19/2002 7:30 a 72.6 72.6 73.7 71.8 0.0 0.0 --- 0.00 29.764
08/19/2002 8:00 a 75.8 75.8 79.8 73.7 0.0 1.0 SSE 0.00 29.773
08/19/2002 8:30 a 79.4 79.4 81.2 78.1 0.0 2.0 SSE 0.00 29.766
08/19/2002 9:00 a 80.3 80.3 82.1 78.2 0.0 1.0 SSE 0.00 29.767
08/19/2002 9:30 a 82.5 82.5 84.5 81.2 0.0 1.0 SSE 0.00 29.768
08/19/2002 10:00 a 82.3 82.3 84.4 80.5 0.0 2.0 SSE 0.00 29.778
08/19/2002 10:30 a 84.1 84.1 85.6 82.9 0.0 3.0 SSE 0.00 29.794
08/19/2002 11:00 a 85.0 85.0 86.4 83.9 0.0 3.0 SE 0.00 29.790
08/19/2002 11:30 a 87.7 87.7 89.1 86.4 0.0 1.0 SE 0.00 29.785
08/19/2002 12:00 p 89.4 89.4 91.2 88.1 0.0 2.0 S 0.00 29.777
08/19/2002 12:30 p 90.7 90.7 92.1 89.4 0.0 2.0 ESE 0.00 29.765
08/19/2002 1:00 p 92.3 92.3 94.4 90.8 0.0 4.0 WSW 0.00 29.746
08/19/2002 1:30 p 93.7 93.7 96.1 92.0 0.0 4.0 WSW 0.00 29.748
08/19/2002 2:00 p 94.2 94.2 95.5 93.0 0.0 4.0 W 0.00 29.740
08/19/2002 2:30 p 94.1 94.1 95.3 92.9 1.0 5.0 WSW 0.00 29.727
08/19/2002 3:00 p 94.4 94.4 95.4 93.6 1.0 6.0 WSW 0.00 29.729
08/19/2002 3:30 p 94.5 94.5 95.7 93.7 1.0 6.0 WSW 0.00 29.716
08/19/2002 4:00 p 93.6 93.6 94.7 92.5 1.0 4.0 WSW 0.00 29.711
08/19/2002 4:30 p 92.8 92.8 93.6 92.1 0.0 4.0 SW 0.00 29.697
08/19/2002 5:00 p 91.8 91.8 92.8 90.2 0.0 5.0 WSW 0.00 29.686
08/19/2002 5:30 p 90.4 90.4 91.1 89.8 0.0 3.0 S 0.00 29.671
08/19/2002 6:00 p 90.3 90.3 90.6 89.9 0.0 3.0 WSW 0.00 29.664
08/19/2002 6:30 p 88.5 88.5 90.0 87.7 0.0 1.0 WSW 0.00 29.664
08/19/2002 7:00 p 88.0 88.0 89.2 86.4 0.0 2.0 WSW 0.00 29.672
08/19/2002 7:30 p 85.6 85.6 86.6 83.6 0.0 0.0 --- 0.00 29.675
08/19/2002 8:00 p 82.5 82.5 83.5 81.2 0.0 0.0 --- 0.00 29.673
08/19/2002 8:30 p 80.0 80.0 81.2 79.0 0.0 0.0 --- 0.00 29.680
08/19/2002 9:00 p 78.7 78.7 79.1 77.8 0.0 1.0 --- 0.00 29.693
08/19/2002 9:30 p 79.5 79.5 80.1 79.0 0.0 1.0 --- 0.00 29.703
08/19/2002 10:00 p 78.1 78.1 79.2 77.5 0.0 0.0 --- 0.00 29.710
08/19/2002 10:30 p 77.2 77.2 78.4 76.3 0.0 0.0 --- 0.00 29.710
08/19/2002 11:00 p 76.2 76.2 76.4 75.7 0.0 0.0 --- 0.00 29.711
08/19/2002 11:30 p 75.1 75.1 75.8 74.5 0.0 0.0 --- 0.00 29.712
08/20/2002 12:00 a 74.7 74.7 74.9 74.4 0.0 0.0 --- 0.00 29.716
08/20/2002 12:30 a 74.5 74.5 74.7 74.2 0.0 0.0 --- 0.00 29.714
08/20/2002 1:00 a 74.7 74.7 75.2 74.3 0.0 0.0 --- 0.00 29.710
08/20/2002 1:30 a 74.1 74.1 74.6 73.7 0.0 0.0 --- 0.00 29.707
08/20/2002 2:00 a 73.3 73.3 73.8 73.0 0.0 0.0 --- 0.00 29.702
08/20/2002 2:30 a 73.2 73.2 73.4 72.9 0.0 0.0 --- 0.00 29.697
08/20/2002 3:00 a 73.5 73.5 73.7 73.3 0.0 0.0 --- 0.00 29.697
08/20/2002 3:30 a 74.1 74.1 74.4 73.6 0.0 0.0 --- 0.00 29.698
08/20/2002 4:00 a 75.3 75.3 75.9 74.4 0.0 2.0 WSW 0.00 29.711
08/20/2002 4:30 a 75.5 75.5 77.4 74.6 0.0 3.0 WSW 0.00 29.721
08/20/2002 5:00 a 75.7 75.7 77.4 71.7 0.0 3.0 WSW 0.02 29.745
08/20/2002 5:30 a 71.0 71.0 71.6 70.1 0.0 3.0 WSW 0.02 29.737
08/20/2002 6:00 a 70.0 70.0 70.6 69.2 0.0 3.0 WSW 0.16 29.770
08/20/2002 6:30 a 69.2 69.2 69.5 68.7 0.0 0.0 --- 0.04 29.767
08/20/2002 7:00 a 68.3 68.3 68.7 68.0 0.0 0.0 --- 0.00 29.793
08/20/2002 7:30 a 68.1 68.1 68.7 67.8 0.0 0.0 --- 0.00 29.796
08/20/2002 8:00 a 69.1 69.1 69.4 68.7 0.0 2.0 WSW 0.00 29.804
08/20/2002 8:30 a 69.9 69.9 70.2 69.5 0.0 1.0 WSW 0.00 29.806
08/20/2002 9:00 a 71.1 71.1 72.3 70.2 0.0 0.0 --- 0.00 29.810
08/20/2002 9:30 a 73.7 73.7 75.8 72.3 0.0 1.0 WSW 0.00 29.815
08/20/2002 10:00 a 75.0 75.0 76.7 74.0 0.0 4.0 SW 0.00 29.826
08/20/2002 10:30 a 75.4 75.4 77.0 74.1 0.0 3.0 SSE 0.00 29.836
08/20/2002 11:00 a 76.3 76.3 78.9 75.1 0.0 3.0 SW 0.00 29.843
08/20/2002 11:30 a 77.6 77.6 78.7 76.5 1.0 6.0 WSW 0.00 29.860
08/20/2002 12:00 p 77.9 77.9 79.5 76.5 1.0 7.0 WSW 0.00 29.864
08/20/2002 12:30 p 79.3 79.3 81.6 77.4 1.0 7.0 WSW 0.00 29.863
08/20/2002 1:00 p 81.4 81.4 83.1 79.4 0.0 6.0 WSW 0.00 29.854
08/20/2002 1:30 p 83.6 83.6 84.8 81.3 1.0 7.0 WSW 0.00 29.853
08/20/2002 2:00 p 84.7 84.7 85.8 82.1 1.0 6.0 WSW 0.00 29.856
08/20/2002 2:30 p 83.6 83.6 86.7 81.6 1.0 5.0 WSW 0.00 29.853
08/20/2002 3:00 p 83.5 83.5 85.7 82.1 1.0 7.0 WSW 0.00 29.860
08/20/2002 3:30 p 83.4 83.4 84.6 82.5 1.0 6.0 WSW 0.00 29.868
08/20/2002 4:00 p 84.0 84.0 85.4 82.9 1.0 5.0 WSW 0.00 29.867
08/20/2002 4:30 p 84.2 84.2 86.2 81.9 0.0 3.0 SW 0.00 29.866
08/20/2002 5:00 p 83.0 83.0 84.2 81.8 0.0 4.0 SW 0.00 29.865
08/20/2002 5:30 p 84.0 84.0 84.8 82.8 0.0 2.0 WSW 0.00 29.868
08/20/2002 6:00 p 82.8 82.8 83.5 82.1 0.0 3.0 SSE 0.00 29.878
08/20/2002 6:30 p 82.3 82.3 83.0 81.2 0.0 3.0 WSW 0.00 29.887
08/20/2002 7:00 p 80.1 80.1 81.2 79.2 0.0 2.0 SE 0.00 29.896
08/20/2002 7:30 p 78.7 78.7 79.3 77.9 0.0 2.0 SSE 0.00 29.912
08/20/2002 8:00 p 77.4 77.4 77.9 76.8 0.0 2.0 SW 0.00 29.919
08/20/2002 8:30 p 76.2 76.2 76.8 75.4 0.0 1.0 --- 0.00 29.933
08/20/2002 9:00 p 75.1 75.1 75.7 74.4 0.0 0.0 --- 0.00 29.946
08/20/2002 9:30 p 73.6 73.6 74.6 72.7 0.0 0.0 --- 0.00 29.960
08/20/2002 10:00 p 71.8 71.8 72.7 71.3 0.0 0.0 --- 0.00 29.967
08/20/2002 10:30 p 71.8 71.8 75.8 70.7 0.0 0.0 --- 0.00 29.974
08/20/2002 11:00 p 73.7 73.7 76.5 69.9 0.0 0.0 --- 0.00 29.980
08/20/2002 11:30 p 68.8 68.8 70.3 68.2 0.0 0.0 --- 0.00 29.987
08/21/2002 12:00 a 68.0 68.0 68.5 67.5 0.0 0.0 --- 0.00 29.995
08/21/2002 12:30 a 66.9 66.9 67.4 66.3 0.0 0.0 --- 0.00 29.998
08/21/2002 1:00 a 66.3 66.3 66.9 65.7 0.0 0.0 --- 0.00 29.999
08/21/2002 1:30 a 65.4 65.4 65.9 65.0 0.0 0.0 --- 0.00 30.005
08/21/2002 2:00 a 64.7 64.7 65.5 64.3 0.0 0.0 --- 0.00 30.017
08/21/2002 2:30 a 64.3 64.3 64.7 64.1 0.0 0.0 --- 0.00 30.022
08/21/2002 3:00 a 63.9 63.9 64.2 63.6 0.0 0.0 --- 0.00 30.028
08/21/2002 3:30 a 64.0 64.0 64.3 63.7 0.0 0.0 --- 0.00 30.041
08/21/2002 4:00 a 63.8 63.8 64.1 63.5 0.0 0.0 --- 0.00 30.051
08/21/2002 4:30 a 64.2 64.2 64.7 63.9 0.0 0.0 --- 0.00 30.034
08/21/2002 5:00 a 65.7 65.7 66.9 64.1 0.0 2.0 SW 0.00 30.060
08/21/2002 5:30 a 65.5 65.5 66.3 65.0 0.0 0.0 --- 0.00 30.068
08/21/2002 6:00 a 65.8 65.8 66.6 65.0 0.0 0.0 --- 0.00 30.078
08/21/2002 6:30 a 66.5 66.5 66.8 66.2 0.0 0.0 --- 0.00 30.087
08/21/2002 7:00 a 66.0 66.0 66.9 64.9 0.0 0.0 --- 0.00 30.109
08/21/2002 7:30 a 66.3 66.3 68.3 64.9 0.0 0.0 --- 0.00 30.125
08/21/2002 8:00 a 69.4 69.4 69.8 68.3 0.0 0.0 --- 0.00 30.131
08/21/2002 8:30 a 71.0 71.0 72.2 69.7 0.0 3.0 SW 0.00 30.136
08/21/2002 9:00 a 72.4 72.4 73.5 71.5 0.0 4.0 SW 0.00 30.131
08/21/2002 9:30 a 74.4 74.4 75.4 73.4 0.0 2.0 SSE 0.00 30.134
08/21/2002 10:00 a 76.3 76.3 77.7 75.2 0.0 2.0 S 0.00 30.140
08/21/2002 10:30 a 77.9 77.9 79.1 77.2 0.0 4.0 WSW 0.00 30.144
08/21/2002 11:00 a 79.5 79.5 80.7 78.2 0.0 3.0 WSW 0.00 30.149
08/21/2002 11:30 a 81.4 81.4 82.9 80.3 0.0 3.0 SE 0.00 30.143
08/21/2002 12:00 p 82.9 82.9 84.1 82.2 0.0 3.0 S 0.00 30.134
08/21/2002 12:30 p 82.7 82.7 84.8 79.6 0.0 4.0 ESE 0.00 30.130
08/21/2002 1:00 p 83.7 83.7 86.1 79.5 0.0 3.0 SE 0.00 30.122
08/21/2002 1:30 p 85.7 85.7 86.6 84.5 1.0 3.0 WSW 0.00 30.120
08/21/2002 2:00 p 86.2 86.2 87.2 84.6 1.0 4.0 SSE 0.00 30.114
08/21/2002 2:30 p 86.6 86.6 87.4 85.5 0.0 4.0 SSW 0.00 30.102
08/21/2002 3:00 p 86.8 86.8 87.5 85.5 0.0 4.0 ESE 0.00 30.098
08/21/2002 3:30 p 86.4 86.4 87.3 85.1 0.0 2.0 SE 0.00 30.098
08/21/2002 4:00 p 86.0 86.0 86.8 85.3 1.0 3.0 ESE 0.00 30.077
08/21/2002 4:30 p 85.3 85.3 85.8 84.6 0.0 3.0 ESE 0.00 30.070
08/21/2002 5:00 p 84.2 84.2 84.8 83.7 0.0 2.0 ESE 0.00 30.071
08/21/2002 5:30 p 82.8 82.8 83.9 81.9 0.0 3.0 ESE 0.00 30.074
08/21/2002 6:00 p 81.2 81.2 82.0 80.6 1.0 4.0 E 0.00 30.081
08/21/2002 6:30 p 79.9 79.9 80.6 79.1 1.0 3.0 E 0.00 30.084
08/21/2002 7:00 p 78.3 78.3 79.1 77.8 0.0 2.0 E 0.00 30.087
08/21/2002 7:30 p 76.8 76.8 77.8 75.9 0.0 2.0 E 0.00 30.085
08/21/2002 8:00 p 75.1 75.1 76.1 73.7 0.0 2.0 E 0.00 30.094
08/21/2002 8:30 p 73.0 73.0 73.7 72.3 0.0 1.0 --- 0.00 30.104
08/21/2002 9:00 p 72.4 72.4 73.0 71.2 0.0 1.0 E 0.00 30.112
08/21/2002 9:30 p 70.1 70.1 71.3 69.4 0.0 0.0 --- 0.00 30.122
08/21/2002 10:00 p 69.0 69.0 69.6 68.2 0.0 0.0 --- 0.00 30.121
08/21/2002 10:30 p 68.1 68.1 68.4 67.6 0.0 0.0 --- 0.00 30.123
08/21/2002 11:00 p 67.5 67.5 67.9 67.0 0.0 0.0 --- 0.00 30.118
08/21/2002 11:30 p 66.5 66.5 67.0 66.3 0.0 0.0 --- 0.00 30.114
08/22/2002 12:00 a 65.9 65.9 66.3 65.6 0.0 0.0 --- 0.00 30.109
08/22/2002 12:30 a 65.2 65.2 65.8 64.9 0.0 0.0 --- 0.00 30.106
08/22/2002 1:00 a 65.1 65.1 65.7 64.5 0.0 0.0 --- 0.00 30.098
08/22/2002 1:30 a 64.1 64.1 65.1 63.5 0.0 0.0 --- 0.00 30.101
08/22/2002 2:00 a 63.1 63.1 63.6 62.7 0.0 0.0 --- 0.00 30.107
08/22/2002 2:30 a 62.6 62.6 63.1 62.0 0.0 0.0 --- 0.00 30.098
08/22/2002 3:00 a 62.1 62.1 62.3 62.0 0.0 0.0 --- 0.00 30.099
08/22/2002 3:30 a 62.0 62.0 62.3 61.7 0.0 0.0 --- 0.00 30.096
08/22/2002 4:00 a 61.6 61.6 62.0 61.1 0.0 0.0 --- 0.00 30.097
08/22/2002 4:30 a 61.2 61.2 61.6 60.9 0.0 0.0 --- 0.00 30.098
08/22/2002 5:00 a 60.9 60.9 61.2 60.6 0.0 0.0 --- 0.00 30.091
08/22/2002 5:30 a 61.0 61.0 61.3 60.7 0.0 0.0 --- 0.00 30.093
08/22/2002 6:00 a 60.7 60.7 61.0 60.3 0.0 0.0 --- 0.00 30.091
08/22/2002 6:30 a 60.7 60.7 61.1 60.3 0.0 0.0 --- 0.00 30.085
08/22/2002 7:00 a 61.0 61.0 61.9 60.6 0.0 0.0 --- 0.00 30.078
08/22/2002 7:30 a 62.8 62.8 63.5 61.9 0.0 0.0 --- 0.00 30.084
08/22/2002 8:00 a 65.0 65.0 66.6 63.5 0.0 0.0 --- 0.00 30.086
08/22/2002 8:30 a 68.4 68.4 70.0 66.6 0.0 0.0 --- 0.00 30.075
08/22/2002 9:00 a 71.6 71.6 74.0 70.0 0.0 1.0 --- 0.00 30.076
08/22/2002 9:30 a 74.7 74.7 76.7 73.8 0.0 1.0 ESE 0.00 30.068
08/22/2002 10:00 a 76.7 76.7 77.8 75.8 0.0 1.0 ESE 0.00 30.066
08/22/2002 10:30 a 77.5 77.5 79.0 76.0 0.0 2.0 NW 0.00 30.059
08/22/2002 11:00 a 79.3 79.3 81.5 76.8 0.0 3.0 W 0.00 30.039
08/22/2002 11:30 a 80.9 80.9 82.8 79.4 1.0 4.0 E 0.00 30.031
08/22/2002 12:00 p 81.5 81.5 83.7 80.5 0.0 3.0 NE 0.00 30.017
08/22/2002 12:30 p 84.4 84.4 85.6 82.5 0.0 5.0 ESE 0.00 30.003
08/22/2002 1:00 p 86.5 86.5 88.3 84.1 0.0 3.0 ENE 0.00 29.980
08/22/2002 1:30 p 86.5 86.5 88.7 84.3 0.0 5.0 ENE 0.00 29.961
08/22/2002 2:00 p 89.0 89.0 90.6 85.9 0.0 4.0 ENE 0.00 29.940
08/22/2002 2:30 p 89.5 89.5 91.2 87.8 0.0 4.0 NE 0.00 29.919
08/22/2002 3:00 p 90.1 90.1 91.0 88.9 0.0 2.0 E 0.00 29.903
08/22/2002 3:30 p 88.2 88.2 90.3 86.7 0.0 4.0 E 0.00 29.888
08/22/2002 4:00 p 87.9 87.9 89.9 86.7 0.0 3.0 NW 0.00 29.872
08/22/2002 4:30 p 88.7 88.7 90.1 87.8 0.0 4.0 WNW 0.00 29.860
08/22/2002 5:00 p 86.6 86.6 88.4 85.2 0.0 2.0 N 0.00 29.848
08/22/2002 5:30 p 86.0 86.0 86.4 85.5 0.0 1.0 N 0.00 29.839
08/22/2002 6:00 p 85.3 85.3 85.7 84.8 0.0 3.0 N 0.00 29.828
08/22/2002 6:30 p 84.4 84.4 84.8 84.1 0.0 1.0 --- 0.00 29.820
08/22/2002 7:00 p 83.5 83.5 84.4 82.4 0.0 2.0 SSE 0.00 29.806
08/22/2002 7:30 p 82.0 82.0 82.4 81.8 0.0 1.0 SE 0.00 29.793
08/22/2002 8:00 p 82.8 82.8 84.9 81.6 0.0 1.0 --- 0.00 29.787
08/22/2002 8:30 p 82.4 82.4 85.5 81.1 0.0 1.0 E 0.00 29.788
08/22/2002 9:00 p 81.2 81.2 81.5 80.4 0.0 3.0 E 0.00 29.787
08/22/2002 9:30 p 79.6 79.6 80.4 78.9 0.0 2.0 SSE 0.00 29.802
08/22/2002 10:00 p 77.0 77.0 79.0 74.2 0.0 2.0 SSE 0.00 29.813
08/22/2002 10:30 p 72.6 72.6 74.2 71.0 0.0 2.0 WNW 0.02 29.825
08/22/2002 11:00 p 70.8 70.8 71.2 70.5 0.0 1.0 --- 0.00 29.824
08/22/2002 11:30 p 70.5 70.5 70.7 70.3 0.0 0.0 --- 0.00 29.813
08/23/2002 12:00 a 70.4 70.4 70.6 70.2 0.0 0.0 --- 0.00 29.804
08/23/2002 12:30 a 70.4 70.4 70.6 70.3 0.0 0.0 --- 0.00 29.791
08/23/2002 1:00 a 70.8 70.8 71.1 70.5 0.0 0.0 --- 0.00 29.794
08/23/2002 1:30 a 71.1 71.1 71.4 70.8 0.0 0.0 --- 0.01 29.790
08/23/2002 2:00 a 70.9 70.9 71.1 70.7 0.0 0.0 --- 0.00 29.785
08/23/2002 2:30 a 70.9 70.9 71.1 70.7 0.0 0.0 --- 0.00 29.776
08/23/2002 3:00 a 71.3 71.3 71.8 71.0 0.0 0.0 --- 0.00 29.764
08/23/2002 3:30 a 71.7 71.7 71.9 71.6 0.0 0.0 --- 0.00 29.764
08/23/2002 4:00 a 71.8 71.8 72.0 71.6 0.0 0.0 --- 0.00 29.755
08/23/2002 4:30 a 71.8 71.8 71.9 71.6 0.0 0.0 --- 0.00 29.753
08/23/2002 5:00 a 71.8 71.8 71.9 71.7 0.0 0.0 --- 0.01 29.749
08/23/2002 5:30 a 71.6 71.6 71.9 71.4 0.0 0.0 --- 0.00 29.753
08/23/2002 6:00 a 71.3 71.3 71.4 71.1 0.0 0.0 --- 0.00 29.759
08/23/2002 6:30 a 71.1 71.1 71.3 71.0 0.0 0.0 --- 0.00 29.764
08/23/2002 7:00 a 71.6 71.6 72.4 71.0 0.0 1.0 WNW 0.00 29.766
08/23/2002 7:30 a 73.5 73.5 74.9 71.8 0.0 2.0 WNW 0.00 29.772
08/23/2002 8:00 a 75.7 75.7 76.6 74.8 1.0 4.0 WSW 0.00 29.784
08/23/2002 8:30 a 76.4 76.4 77.5 75.4 0.0 5.0 WSW 0.00 29.792
08/23/2002 9:00 a 74.7 74.7 75.4 74.4 1.0 5.0 WSW 0.00 29.812
08/23/2002 9:30 a 74.9 74.9 75.2 74.6 1.0 5.0 WSW 0.00 29.825
08/23/2002 10:00 a 76.2 76.2 76.9 75.1 0.0 6.0 WSW 0.00 29.833
08/23/2002 10:30 a 77.2 77.2 78.2 76.3 1.0 4.0 WSW 0.00 29.848
08/23/2002 11:00 a 78.3 78.3 79.3 77.0 0.0 4.0 WSW 0.00 29.844
08/23/2002 11:30 a 78.0 78.0 79.5 77.1 0.0 4.0 WSW 0.00 29.839
08/23/2002 12:00 p 78.3 78.3 79.6 77.5 0.0 3.0 WSW 0.00 29.842
08/23/2002 12:30 p 78.5 78.5 80.3 77.7 0.0 4.0 WSW 0.00 29.836
08/23/2002 1:00 p 78.6 78.6 79.9 78.1 0.0 4.0 WSW 0.00 29.836
08/23/2002 1:30 p 78.2 78.2 79.4 77.7 0.0 2.0 WSW 0.00 29.840
08/23/2002 2:00 p 78.7 78.7 79.5 78.0 0.0 3.0 WSW 0.00 29.839
08/23/2002 2:30 p 78.8 78.8 79.8 78.2 0.0 3.0 WSW 0.00 29.834
08/23/2002 3:00 p 79.6 79.6 80.7 78.7 0.0 5.0 SSW 0.00 29.828
08/23/2002 3:30 p 77.6 77.6 79.2 76.4 0.0 2.0 SSW 0.00 29.831
08/23/2002 4:00 p 76.7 76.7 77.5 76.2 0.0 2.0 ESE 0.00 29.827
08/23/2002 4:30 p 77.3 77.3 79.1 76.6 0.0 2.0 SSE 0.00 29.820
08/23/2002 5:00 p 77.7 77.7 78.6 77.1 0.0 4.0 SSE 0.00 29.812
08/23/2002 5:30 p 76.4 76.4 77.1 76.1 0.0 3.0 ESE 0.00 29.802
08/23/2002 6:00 p 75.9 75.9 76.3 75.5 0.0 2.0 SSE 0.00 29.808
08/23/2002 6:30 p 75.5 75.5 75.8 75.2 0.0 3.0 SSE 0.00 29.813
08/23/2002 7:00 p 75.5 75.5 76.0 75.0 0.0 1.0 SSE 0.00 29.817
08/23/2002 7:30 p 74.6 74.6 75.2 74.3 0.0 1.0 --- 0.00 29.820
08/23/2002 8:00 p 74.3 74.3 74.6 74.1 0.0 1.0 SSE 0.00 29.821
08/23/2002 8:30 p 73.9 73.9 74.3 73.6 0.0 0.0 --- 0.00 29.826
08/23/2002 9:00 p 73.6 73.6 73.8 73.4 0.0 3.0 SSE 0.00 29.830
08/23/2002 9:30 p 73.4 73.4 73.5 73.2 0.0 3.0 E 0.00 29.836
08/23/2002 10:00 p 73.0 73.0 73.3 72.8 1.0 3.0 E 0.00 29.834
08/23/2002 10:30 p 72.5 72.5 72.9 72.3 1.0 4.0 E 0.00 29.834
08/23/2002 11:00 p 72.0 72.0 72.3 71.8 0.0 3.0 E 0.00 29.825
08/23/2002 11:30 p 71.7 71.7 71.9 71.3 0.0 3.0 E 0.00 29.828
08/24/2002 12:00 a 71.3 71.3 71.4 71.1 0.0 3.0 E 0.00 29.815
08/24/2002 12:30 a 71.1 71.1 71.2 70.9 0.0 4.0 E 0.00 29.816
08/24/2002 1:00 a 71.0 71.0 71.1 70.9 0.0 2.0 E 0.00 29.812
08/24/2002 1:30 a 70.9 70.9 71.1 70.4 0.0 2.0 ESE 0.00 29.818
08/24/2002 2:00 a 69.8 69.8 70.4 69.5 0.0 2.0 ESE 0.00 29.812
08/24/2002 2:30 a 69.6 69.6 69.7 69.4 0.0 1.0 --- 0.00 29.799
08/24/2002 3:00 a 69.1 69.1 69.5 68.6 0.0 1.0 ESE 0.00 29.795
08/24/2002 3:30 a 68.5 68.5 68.7 68.0 0.0 1.0 ESE 0.00 29.780
08/24/2002 4:00 a 68.2 68.2 68.5 68.0 0.0 0.0 --- 0.00 29.781
08/24/2002 4:30 a 68.1 68.1 68.2 67.9 0.0 0.0 --- 0.00 29.778
08/24/2002 5:00 a 68.0 68.0 68.2 67.7 0.0 0.0 --- 0.00 29.778
08/24/2002 5:30 a 67.9 67.9 68.1 67.7 0.0 0.0 --- 0.00 29.774
08/24/2002 6:00 a 67.9 67.9 68.0 67.7 0.0 0.0 --- 0.00 29.777
08/24/2002 6:30 a 67.8 67.8 68.1 67.4 0.0 0.0 --- 0.00 29.765
08/24/2002 7:00 a 68.9 68.9 69.8 68.1 0.0 0.0 --- 0.00 29.758
08/24/2002 7:30 a 69.8 69.8 69.9 69.6 0.0 1.0 --- 0.00 29.760
08/24/2002 8:00 a 69.5 69.5 69.8 69.3 0.0 1.0 --- 0.00 29.751
08/24/2002 8:30 a 69.6 69.6 69.8 69.4 0.0 1.0 ESE 0.00 29.753
08/24/2002 9:00 a 69.4 69.4 69.9 69.0 0.0 0.0 --- 0.00 29.754
08/24/2002 9:30 a 69.5 69.5 69.9 69.2 0.0 2.0 ESE 0.00 29.750
08/24/2002 10:00 a 69.9 69.9 70.2 69.7 0.0 2.0 ESE 0.00 29.744
08/24/2002 10:30 a 70.1 70.1 70.2 69.9 0.0 1.0 ESE 0.00 29.739
08/24/2002 11:00 a 70.2 70.2 70.3 70.1 0.0 2.0 ESE 0.00 29.731
08/24/2002 11:30 a 70.0 70.0 70.2 69.9 0.0 1.0 ESE 0.00 29.724
08/24/2002 12:00 p 70.5 70.5 71.1 70.0 0.0 1.0 ESE 0.00 29.714
08/24/2002 12:30 p 70.5 70.5 71.3 70.0 0.0 2.0 ESE 0.00 29.704
08/24/2002 1:00 p 70.5 70.5 70.8 70.1 0.0 1.0 ESE 0.00 29.692
08/24/2002 1:30 p 70.8 70.8 71.2 70.5 0.0 1.0 --- 0.00 29.690
08/24/2002 2:00 p 71.6 71.6 72.6 71.0 0.0 1.0 ESE 0.00 29.672
08/24/2002 2:30 p 71.5 71.5 72.0 71.2 0.0 2.0 ESE 0.00 29.660
08/24/2002 3:00 p 71.7 71.7 72.0 71.4 0.0 0.0 --- 0.00 29.647
08/24/2002 3:30 p 71.9 71.9 72.2 71.6 0.0 0.0 --- 0.00 29.645
08/24/2002 4:00 p 71.2 71.2 71.7 70.9 0.0 1.0 ESE 0.00 29.628
08/24/2002 4:30 p 71.2 71.2 71.4 71.0 0.0 1.0 ESE 0.00 29.626
08/24/2002 5:00 p 71.5 71.5 72.3 71.2 0.0 3.0 SW 0.00 29.614
08/24/2002 5:30 p 71.8 71.8 72.1 71.6 0.0 2.0 SW 0.00 29.625
08/24/2002 6:00 p 72.5 72.5 73.4 71.6 0.0 0.0 --- 0.00 29.607
08/24/2002 6:30 p 71.8 71.8 71.9 71.6 0.0 0.0 --- 0.00 29.605
08/24/2002 7:00 p 72.0 72.0 72.3 71.7 0.0 0.0 --- 0.00 29.602
08/24/2002 7:30 p 71.9 71.9 72.3 71.7 0.0 0.0 --- 0.00 29.584
08/24/2002 8:00 p 71.8 71.8 72.0 71.6 0.0 1.0 SW 0.01 29.601
08/24/2002 8:30 p 70.1 70.1 71.7 68.6 1.0 4.0 WSW 0.15 29.611
08/24/2002 9:00 p 69.0 69.0 69.2 68.8 0.0 2.0 WSW 0.01 29.606
08/24/2002 9:30 p 69.0 69.0 69.2 68.8 0.0 2.0 WSW 0.00 29.620
08/24/2002 10:00 p 68.5 68.5 68.8 68.3 0.0 2.0 WSW 0.00 29.619
08/24/2002 10:30 p 67.9 67.9 68.3 67.5 0.0 3.0 WSW 0.00 29.618
08/24/2002 11:00 p 67.5 67.5 67.7 67.3 0.0 1.0 WSW 0.00 29.633
08/24/2002 11:30 p 67.6 67.6 67.7 67.4 0.0 2.0 WSW 0.00 29.634
08/25/2002 12:00 a 67.4 67.4 67.7 67.0 0.0 1.0 --- 0.00 29.634
08/25/2002 12:30 a 66.6 66.6 67.1 66.3 0.0 0.0 --- 0.00 29.640
08/25/2002 1:00 a 66.0 66.0 66.5 65.8 0.0 1.0 WSW 0.00 29.647
08/25/2002 1:30 a 66.1 66.1 66.2 65.9 0.0 0.0 --- 0.00 29.651
08/25/2002 2:00 a 65.7 65.7 66.0 65.4 0.0 1.0 --- 0.00 29.648
08/25/2002 2:30 a 65.2 65.2 65.5 64.9 0.0 1.0 --- 0.00 29.649
08/25/2002 3:00 a 64.6 64.6 65.2 64.3 0.0 0.0 --- 0.00 29.639
08/25/2002 3:30 a 64.1 64.1 64.5 63.8 0.0 1.0 WSW 0.00 29.645
08/25/2002 4:00 a 63.8 63.8 64.2 63.5 0.0 0.0 --- 0.00 29.651
08/25/2002 4:30 a 63.5 63.5 63.6 63.2 0.0 0.0 --- 0.00 29.653
08/25/2002 5:00 a 63.1 63.1 63.3 62.8 0.0 1.0 --- 0.00 29.654
08/25/2002 5:30 a 62.7 62.7 63.0 62.4 0.0 1.0 WSW 0.00 29.663
08/25/2002 6:00 a 62.3 62.3 62.6 62.1 0.0 0.0 --- 0.00 29.678
08/25/2002 6:30 a 62.4 62.4 62.5 62.3 0.0 0.0 --- 0.00 29.691
08/25/2002 7:00 a 62.7 62.7 63.2 62.3 0.0 0.0 --- 0.00 29.700
08/25/2002 7:30 a 63.9 63.9 64.5 63.2 0.0 1.0 --- 0.00 29.704
08/25/2002 8:00 a 65.0 65.0 65.3 64.4 0.0 4.0 WSW 0.01 29.712
08/25/2002 8:30 a 65.9 65.9 66.6 65.1 0.0 3.0 SW 0.00 29.713
08/25/2002 9:00 a 67.4 67.4 68.3 66.5 0.0 3.0 SW 0.00 29.722
08/25/2002 9:30 a 69.4 69.4 71.0 68.3 1.0 5.0 SW 0.00 29.731
08/25/2002 10:00 a 72.0 72.0 73.0 70.9 1.0 5.0 WSW 0.00 29.733
08/25/2002 10:30 a 74.3 74.3 76.8 72.8 1.0 6.0 WSW 0.00 29.732
08/25/2002 11:00 a 75.8 75.8 76.4 75.2 1.0 6.0 WSW 0.00 29.733
08/25/2002 11:30 a 77.5 77.5 79.9 76.2 1.0 6.0 WSW 0.00 29.729
08/25/2002 12:00 p 80.8 80.8 82.0 78.7 1.0 6.0 WSW 0.00 29.722
08/25/2002 12:30 p 80.7 80.7 82.6 79.3 1.0 5.0 WSW 0.00 29.727
08/25/2002 1:00 p 82.8 82.8 85.8 79.1 1.0 6.0 WSW 0.00 29.731
08/25/2002 1:30 p 82.9 82.9 84.9 79.8 1.0 5.0 WSW 0.00 29.734
08/25/2002 2:00 p 82.5 82.5 85.0 79.4 1.0 5.0 WSW 0.00 29.740
08/25/2002 2:30 p 82.9 82.9 85.1 79.7 1.0 6.0 WSW 0.00 29.734
08/25/2002 3:00 p 84.2 84.2 85.1 83.4 1.0 6.0 WSW 0.00 29.734
08/25/2002 3:30 p 84.7 84.7 85.5 83.6 1.0 5.0 WSW 0.00 29.727
08/25/2002 4:00 p 84.9 84.9 85.6 83.8 1.0 5.0 WSW 0.00 29.725
08/25/2002 4:30 p 83.0 83.0 85.2 82.1 1.0 4.0 SW 0.00 29.726
08/25/2002 5:00 p 82.5 82.5 83.6 81.4 0.0 5.0 WSW 0.00 29.728
08/25/2002 5:30 p 81.0 81.0 81.8 80.1 0.0 3.0 WSW 0.00 29.726
08/25/2002 6:00 p 81.1 81.1 81.8 80.1 0.0 2.0 WSW 0.00 29.730
08/25/2002 6:30 p 80.8 80.8 81.2 80.4 0.0 3.0 WSW 0.00 29.740
08/25/2002 7:00 p 78.0 78.0 80.4 75.9 0.0 2.0 WSW 0.00 29.754
08/25/2002 7:30 p 73.9 73.9 75.9 72.3 0.0 0.0 --- 0.00 29.754
08/25/2002 8:00 p 72.3 72.3 74.3 71.4 0.0 0.0 --- 0.00 29.763
08/25/2002 8:30 p 71.3 71.3 74.5 69.6 0.0 0.0 --- 0.00 29.774
08/25/2002 9:00 p 68.8 68.8 69.8 68.3 0.0 0.0 --- 0.00 29.783
08/25/2002 9:30 p 67.8 67.8 68.6 67.1 0.0 0.0 --- 0.00 29.789
08/25/2002 10:00 p 66.5 66.5 67.1 66.3 0.0 0.0 --- 0.00 29.789
08/25/2002 10:30 p 66.3 66.3 66.8 65.9 0.0 0.0 --- 0.00 29.806
08/25/2002 11:00 p 66.3 66.3 67.0 66.0 0.0 0.0 --- 0.00 29.803
08/25/2002 11:30 p 66.9 66.9 67.0 66.6 0.0 0.0 --- 0.00 29.806
08/26/2002 12:00 a 66.5 66.5 67.0 66.1 0.0 0.0 --- 0.00 29.814
08/26/2002 12:30 a 66.0 66.0 66.5 65.3 0.0 0.0 --- 0.00 29.815
08/26/2002 1:00 a 65.1 65.1 65.7 64.4 0.0 0.0 --- 0.00 29.819
08/26/2002 1:30 a 64.1 64.1 64.4 63.6 0.0 0.0 --- 0.00 29.819
08/26/2002 2:00 a 63.6 63.6 64.0 63.2 0.0 0.0 --- 0.00 29.817
08/26/2002 2:30 a 63.1 63.1 63.3 62.8 0.0 0.0 --- 0.00 29.819
08/26/2002 3:00 a 62.9 62.9 63.2 62.5 0.0 0.0 --- 0.00 29.823
08/26/2002 3:30 a 62.1 62.1 62.5 61.8 0.0 0.0 --- 0.00 29.831
08/26/2002 4:00 a 61.9 61.9 62.2 61.4 0.0 0.0 --- 0.00 29.843
08/26/2002 4:30 a 61.8 61.8 62.1 61.3 0.0 0.0 --- 0.00 29.844
08/26/2002 5:00 a 61.3 61.3 61.7 60.8 0.0 0.0 --- 0.00 29.853
08/26/2002 5:30 a 60.8 60.8 61.0 60.6 0.0 0.0 --- 0.00 29.858
08/26/2002 6:00 a 60.4 60.4 61.0 59.9 0.0 0.0 --- 0.00 29.863
08/26/2002 6:30 a 60.4 60.4 60.6 60.0 0.0 0.0 --- 0.00 29.870
08/26/2002 7:00 a 60.8 60.8 61.4 60.4 0.0 0.0 --- 0.00 29.875
08/26/2002 7:30 a 61.9 61.9 62.9 61.2 0.0 0.0 --- 0.00 29.876
08/26/2002 8:00 a 63.8 63.8 64.9 63.0 0.0 0.0 --- 0.00 29.876
08/26/2002 8:30 a 66.7 66.7 68.8 65.0 0.0 1.0 --- 0.00 29.883
08/26/2002 9:00 a 70.5 70.5 72.0 68.8 0.0 0.0 --- 0.00 29.886
08/26/2002 9:30 a 72.8 72.8 73.6 72.0 0.0 2.0 WSW 0.00 29.887
08/26/2002 10:00 a 74.7 74.7 76.2 73.2 0.0 2.0 WSW 0.00 29.886
08/26/2002 10:30 a 76.0 76.0 76.7 75.5 0.0 2.0 WSW 0.00 29.885
08/26/2002 11:00 a 78.0 78.0 79.9 76.6 0.0 2.0 WSW 0.00 29.876
08/26/2002 11:30 a 79.8 79.8 80.8 78.8 1.0 4.0 WSW 0.00 29.872
08/26/2002 12:00 p 80.5 80.5 81.2 79.8 0.0 3.0 WSW 0.00 29.867
08/26/2002 12:30 p 81.0 81.0 81.9 80.1 0.0 3.0 WSW 0.00 29.860
08/26/2002 1:00 p 81.7 81.7 82.6 80.7 0.0 3.0 WSW 0.00 29.861
08/26/2002 1:30 p 83.3 83.3 84.2 82.1 0.0 4.0 E 0.00 29.857
08/26/2002 2:00 p 84.9 84.9 85.9 83.6 0.0 2.0 WNW 0.00 29.844
08/26/2002 2:30 p 84.5 84.5 85.5 83.3 0.0 4.0 W 0.00 29.840
08/26/2002 3:00 p 83.6 83.6 84.3 83.1 0.0 2.0 W 0.00 29.831
08/26/2002 3:30 p 83.2 83.2 84.0 82.7 0.0 2.0 W 0.00 29.829
08/26/2002 4:00 p 83.2 83.2 84.3 82.5 0.0 2.0 W 0.00 29.823
08/26/2002 4:30 p 83.5 83.5 84.4 82.8 0.0 5.0 WSW 0.00 29.818
08/26/2002 5:00 p 81.6 81.6 83.0 80.6 1.0 5.0 WSW 0.00 29.809
08/26/2002 5:30 p 81.7 81.7 82.3 81.3 0.0 4.0 WSW 0.00 29.815
08/26/2002 6:00 p 79.9 79.9 81.7 78.2 0.0 3.0 WSW 0.00 29.815
08/26/2002 6:30 p 77.7 77.7 78.4 76.8 0.0 1.0 --- 0.00 29.819
08/26/2002 7:00 p 75.5 75.5 77.0 73.8 0.0 0.0 --- 0.00 29.821
08/26/2002 7:30 p 72.7 72.7 73.8 71.6 0.0 0.0 --- 0.00 29.833
08/26/2002 8:00 p 70.5 70.5 71.6 69.5 0.0 0.0 --- 0.00 29.839
08/26/2002 8:30 p 69.3 69.3 69.5 69.1 0.0 0.0 --- 0.00 29.845
08/26/2002 9:00 p 68.1 68.1 69.1 67.9 0.0 0.0 --- 0.00 29.853
08/26/2002 9:30 p 67.7 67.7 68.0 67.5 0.0 0.0 --- 0.00 29.853
08/26/2002 10:00 p 67.4 67.4 67.6 67.0 0.0 0.0 --- 0.00 29.856
08/26/2002 10:30 p 66.5 66.5 67.1 65.7 0.0 0.0 --- 0.00 29.851
08/26/2002 11:00 p 65.3 65.3 65.9 64.8 0.0 0.0 --- 0.00 29.853
08/26/2002 11:30 p 64.0 64.0 64.8 63.4 0.0 0.0 --- 0.00 29.855
08/27/2002 12:00 a 63.9 63.9 64.6 63.0 0.0 0.0 --- 0.00 29.856
08/27/2002 12:30 a 63.0 63.0 63.2 62.5 0.0 0.0 --- 0.00 29.859
08/27/2002 1:00 a 62.4 62.4 62.8 61.9 0.0 0.0 --- 0.00 29.850
08/27/2002 1:30 a 62.0 62.0 62.5 61.6 0.0 0.0 --- 0.00 29.854
08/27/2002 2:00 a 61.6 61.6 62.0 61.5 0.0 0.0 --- 0.00 29.851
08/27/2002 2:30 a 61.6 61.6 62.2 61.1 0.0 0.0 --- 0.00 29.856
08/27/2002 3:00 a 61.2 61.2 61.4 60.9 0.0 0.0 --- 0.00 29.856
08/27/2002 3:30 a 60.8 60.8 61.1 60.6 0.0 0.0 --- 0.00 29.857
08/27/2002 4:00 a 60.8 60.8 61.2 60.5 0.0 0.0 --- 0.00 29.854
08/27/2002 4:30 a 60.5 60.5 60.8 60.2 0.0 0.0 --- 0.00 29.853
08/27/2002 5:00 a 60.2 60.2 60.5 60.0 0.0 0.0 --- 0.00 29.864
08/27/2002 5:30 a 59.9 59.9 60.2 59.6 0.0 0.0 --- 0.00 29.867
08/27/2002 6:00 a 62.6 62.6 68.2 59.8 0.0 0.0 --- 0.00 29.875
08/27/2002 6:30 a 61.4 61.4 65.7 59.4 0.0 0.0 --- 0.00 29.884
08/27/2002 7:00 a 60.3 60.3 60.8 59.6 0.0 0.0 --- 0.00 29.894
08/27/2002 7:30 a 61.6 61.6 62.7 60.7 0.0 0.0 --- 0.00 29.905
08/27/2002 8:00 a 63.8 63.8 64.8 62.7 0.0 0.0 --- 0.00 29.907
08/27/2002 8:30 a 66.4 66.4 68.0 64.8 0.0 0.0 --- 0.00 29.914
08/27/2002 9:00 a 70.0 70.0 71.7 68.0 0.0 0.0 --- 0.00 29.920
08/27/2002 9:30 a 75.1 75.1 77.1 71.7 0.0 4.0 SW 0.00 29.923
08/27/2002 10:00 a 77.6 77.6 78.4 76.8 0.0 3.0 WSW 0.00 29.935
08/27/2002 10:30 a 79.3 79.3 80.1 78.2 0.0 3.0 S 0.00 29.937
08/27/2002 11:00 a 79.8 79.8 80.3 79.1 1.0 5.0 WSW 0.00 29.934
08/27/2002 11:30 a 80.6 80.6 81.9 79.5 1.0 4.0 WSW 0.00 29.933
08/27/2002 12:00 p 82.1 82.1 83.0 81.1 1.0 4.0 SW 0.00 29.932
08/27/2002 12:30 p 82.9 82.9 83.8 82.0 1.0 4.0 WSW 0.00 29.930
08/27/2002 1:00 p 84.3 84.3 85.3 83.5 0.0 4.0 WSW 0.00 29.930
08/27/2002 1:30 p 84.6 84.6 85.9 82.6 0.0 3.0 WSW 0.00 29.929
08/27/2002 2:00 p 85.3 85.3 85.8 84.6 0.0 5.0 WSW 0.00 29.933
08/27/2002 2:30 p 86.2 86.2 87.0 85.3 0.0 4.0 WSW 0.00 29.930
08/27/2002 3:00 p 86.1 86.1 86.9 85.4 0.0 2.0 S 0.00 29.929
08/27/2002 3:30 p 86.3 86.3 86.8 85.8 0.0 3.0 SSE 0.00 29.933
08/27/2002 4:00 p 86.0 86.0 87.1 85.1 0.0 2.0 SSW 0.00 29.935
08/27/2002 4:30 p 84.8 84.8 85.7 83.3 0.0 4.0 SE 0.00 29.933
08/27/2002 5:00 p 83.1 83.1 83.3 82.6 0.0 2.0 SSE 0.00 29.945
08/27/2002 5:30 p 82.5 82.5 83.0 82.1 0.0 3.0 SSW 0.00 29.950
08/27/2002 6:00 p 81.9 81.9 82.2 81.0 0.0 3.0 SSE 0.00 29.956
08/27/2002 6:30 p 80.4 80.4 81.1 79.7 0.0 2.0 ESE 0.00 29.961
08/27/2002 7:00 p 79.1 79.1 79.8 78.5 0.0 1.0 --- 0.00 29.969
08/27/2002 7:30 p 77.4 77.4 78.5 76.2 0.0 0.0 --- 0.00 29.979
08/27/2002 8:00 p 75.2 75.2 76.2 74.4 0.0 0.0 --- 0.00 29.986
08/27/2002 8:30 p 73.8 73.8 74.4 73.2 0.0 0.0 --- 0.00 29.999
08/27/2002 9:00 p 73.4 73.4 74.5 73.1 0.0 0.0 --- 0.00 30.012
08/27/2002 9:30 p 78.4 78.4 81.1 74.5 0.0 0.0 --- 0.00 30.022
08/27/2002 10:00 p 75.3 75.3 80.6 73.2 0.0 0.0 --- 0.00 30.021
08/27/2002 10:30 p 73.1 73.1 73.3 72.8 0.0 0.0 --- 0.00 30.030
08/27/2002 11:00 p 72.4 72.4 72.8 72.1 0.0 0.0 --- 0.00 30.039
08/27/2002 11:30 p 72.4 72.4 72.7 72.1 0.0 0.0 --- 0.00 30.047
08/28/2002 12:00 a 72.3 72.3 73.1 71.5 0.0 0.0 --- 0.00 30.051
08/28/2002 12:30 a 71.4 71.4 71.7 71.1 0.0 0.0 --- 0.00 30.057
08/28/2002 1:00 a 71.3 71.3 71.7 70.7 0.0 0.0 --- 0.00 30.062
08/28/2002 1:30 a 71.5 71.5 71.9 71.1 0.0 0.0 --- 0.00 30.067
08/28/2002 2:00 a 71.8 71.8 72.0 71.6 0.0 0.0 --- 0.00 30.065
08/28/2002 2:30 a 71.8 71.8 72.0 71.4 0.0 0.0 --- 0.00 30.063
08/28/2002 3:00 a 71.3 71.3 71.4 71.2 0.0 0.0 --- 0.00 30.065
08/28/2002 3:30 a 70.8 70.8 71.3 70.4 0.0 0.0 --- 0.00 30.065
08/28/2002 4:00 a 70.5 70.5 70.6 70.2 0.0 0.0 --- 0.00 30.068
08/28/2002 4:30 a 70.2 70.2 70.4 70.1 0.0 0.0 --- 0.00 30.073
08/28/2002 5:00 a 71.0 71.0 71.8 70.1 0.0 3.0 E 0.00 30.086
08/28/2002 5:30 a 71.6 71.6 71.8 71.4 0.0 3.0 SSE 0.00 30.091
08/28/2002 6:00 a 71.3 71.3 71.6 71.1 0.0 4.0 SW 0.00 30.105
08/28/2002 6:30 a 71.2 71.2 71.3 71.1 0.0 4.0 SSE 0.00 30.114
08/28/2002 7:00 a 71.2 71.2 71.3 71.0 0.0 2.0 SSE 0.00 30.124
08/28/2002 7:30 a 71.0 71.0 71.3 70.5 0.0 1.0 SSE 0.00 30.127
08/28/2002 8:00 a 70.9 70.9 72.0 70.3 0.0 4.0 ESE 0.00 30.132
08/28/2002 8:30 a 72.5 72.5 72.7 72.0 0.0 4.0 SSE 0.00 30.137
08/28/2002 9:00 a 72.8 72.8 73.2 72.6 1.0 5.0 ESE 0.00 30.142
08/28/2002 9:30 a 73.2 73.2 73.7 72.7 1.0 4.0 SSE 0.00 30.154
08/28/2002 10:00 a 73.7 73.7 74.3 72.8 0.0 3.0 S 0.00 30.155
08/28/2002 10:30 a 73.8 73.8 74.6 73.4 0.0 6.0 ESE 0.00 30.156
08/28/2002 11:00 a 74.1 74.1 74.9 73.6 0.0 5.0 ESE 0.00 30.165
08/28/2002 11:30 a 74.4 74.4 75.1 73.8 0.0 3.0 SW 0.00 30.169
08/28/2002 12:00 p 74.2 74.2 74.8 73.8 0.0 5.0 E 0.00 30.165
08/28/2002 12:30 p 74.1 74.1 74.6 73.6 0.0 4.0 SSE 0.00 30.158
08/28/2002 1:00 p 73.8 73.8 74.4 73.1 0.0 4.0 SSE 0.00 30.159
08/28/2002 1:30 p 75.4 75.4 76.8 73.5 0.0 4.0 WSW 0.00 30.156
08/28/2002 2:00 p 73.9 73.9 75.1 73.3 0.0 3.0 SE 0.00 30.148
08/28/2002 2:30 p 73.0 73.0 73.7 72.5 0.0 2.0 SE 0.00 30.144
08/28/2002 3:00 p 72.4 72.4 72.8 72.0 0.0 2.0 SE 0.00 30.140
08/28/2002 3:30 p 71.5 71.5 72.5 70.7 0.0 2.0 SE 0.00 30.136
08/28/2002 4:00 p 70.2 70.2 70.7 69.5 0.0 2.0 SE 0.00 30.146
08/28/2002 4:30 p 69.9 69.9 70.2 69.5 0.0 1.0 SE 0.00 30.149
08/28/2002 5:00 p 69.8 69.8 70.1 69.3 0.0 2.0 SE 0.00 30.144
08/28/2002 5:30 p 70.0 70.0 70.3 69.7 0.0 3.0 SE 0.00 30.140
08/28/2002 6:00 p 69.7 69.7 70.3 69.4 0.0 0.0 --- 0.00 30.135
08/28/2002 6:30 p 69.6 69.6 69.8 69.4 0.0 2.0 S 0.00 30.136
08/28/2002 7:00 p 69.2 69.2 69.6 68.3 0.0 3.0 S 0.00 30.139
08/28/2002 7:30 p 68.2 68.2 68.4 68.0 0.0 2.0 S 0.00 30.135
08/28/2002 8:00 p 68.3 68.3 68.5 68.0 0.0 4.0 SW 0.00 30.137
08/28/2002 8:30 p 68.0 68.0 68.6 67.5 0.0 5.0 SE 0.00 30.138
08/28/2002 9:00 p 68.6 68.6 68.9 68.4 0.0 4.0 WSW 0.00 30.140
08/28/2002 9:30 p 68.5 68.5 68.8 68.2 0.0 3.0 S 0.00 30.135
08/28/2002 10:00 p 68.1 68.1 68.5 67.8 0.0 4.0 S 0.00 30.136
08/28/2002 10:30 p 68.1 68.1 69.7 66.2 0.0 3.0 E 0.00 30.128
08/28/2002 11:00 p 64.2 64.2 66.2 63.3 0.0 3.0 SSW 0.00 30.122
08/28/2002 11:30 p 62.5 62.5 63.9 61.3 0.0 2.0 SSW 0.03 30.118
08/29/2002 12:00 a 61.4 61.4 61.8 61.1 0.0 0.0 --- 0.00 30.101
08/29/2002 12:30 a 61.9 61.9 62.1 61.7 0.0 2.0 S 0.00 30.090
08/29/2002 1:00 a 61.9 61.9 62.1 61.7 0.0 1.0 S 0.01 30.082
08/29/2002 1:30 a 61.8 61.8 62.0 61.7 0.0 0.0 --- 0.00 30.069
08/29/2002 2:00 a 61.8 61.8 61.9 61.6 0.0 0.0 --- 0.01 30.060
08/29/2002 2:30 a 61.7 61.7 62.0 61.6 0.0 1.0 --- 0.01 30.048
08/29/2002 3:00 a 60.7 60.7 61.7 59.9 0.0 4.0 SW 0.09 30.043
08/29/2002 3:30 a 59.7 59.7 60.1 59.4 0.0 2.0 SW 0.02 30.031
08/29/2002 4:00 a 59.4 59.4 59.7 59.2 0.0 3.0 SW 0.02 30.022
08/29/2002 4:30 a 59.4 59.4 59.7 59.2 0.0 2.0 SW 0.00 30.022
08/29/2002 5:00 a 59.6 59.6 59.8 59.4 0.0 2.0 SW 0.00 30.016
08/29/2002 5:30 a 59.7 59.7 59.9 59.6 0.0 2.0 SW 0.01 30.005
08/29/2002 6:00 a 59.6 59.6 59.8 59.3 0.0 7.0 SW 0.08 30.003
08/29/2002 6:30 a 59.4 59.4 59.6 59.2 0.0 3.0 WSW 0.08 29.995
08/29/2002 7:00 a 59.3 59.3 59.5 59.1 0.0 3.0 W 0.13 29.990
08/29/2002 7:30 a 59.2 59.2 59.4 59.1 0.0 5.0 SW 0.07 29.966
08/29/2002 8:00 a 59.2 59.2 59.4 59.0 0.0 5.0 WSW 0.10 29.972
08/29/2002 8:30 a 59.2 59.2 59.4 59.0 0.0 4.0 SW 0.14 29.964
08/29/2002 9:00 a 59.6 59.6 59.9 59.2 0.0 4.0 SW 0.10 29.962
08/29/2002 9:30 a 60.3 60.3 60.7 59.8 1.0 4.0 SW 0.01 29.987
08/29/2002 10:00 a 60.8 60.8 61.3 60.3 0.0 5.0 SW 0.00 29.974
08/29/2002 10:30 a 61.9 61.9 62.4 61.3 0.0 2.0 WSW 0.00 29.961
08/29/2002 11:00 a 62.4 62.4 62.7 62.2 1.0 6.0 WSW 0.00 29.959
08/29/2002 11:30 a 63.2 63.2 64.2 62.5 1.0 7.0 WSW 0.00 29.950
08/29/2002 12:00 p 64.1 64.1 64.8 63.5 0.0 4.0 WSW 0.00 29.943
08/29/2002 12:30 p 64.3 64.3 64.7 63.9 1.0 5.0 WSW 0.00 29.942
08/29/2002 1:00 p 63.8 63.8 64.1 63.5 0.0 5.0 WSW 0.00 29.944
08/29/2002 1:30 p 64.0 64.0 64.2 63.9 0.0 3.0 N 0.00 29.951
08/29/2002 2:00 p 64.0 64.0 64.2 63.5 0.0 4.0 WSW 0.00 29.958
08/29/2002 2:30 p 63.5 63.5 63.7 63.3 1.0 4.0 WSW 0.00 29.955
08/29/2002 3:00 p 63.5 63.5 63.8 63.3 1.0 4.0 SW 0.00 29.944
08/29/2002 3:30 p 63.9 63.9 64.2 63.6 1.0 3.0 WSW 0.00 29.950
08/29/2002 4:00 p 63.9 63.9 64.2 63.7 1.0 5.0 WSW 0.00 29.949
08/29/2002 4:30 p 63.6 63.6 63.9 63.5 0.0 3.0 WSW 0.00 29.948
08/29/2002 5:00 p 63.9 63.9 64.4 63.3 1.0 5.0 WSW 0.00 29.946
08/29/2002 5:30 p 63.3 63.3 63.6 63.0 1.0 4.0 WSW 0.00 29.952
08/29/2002 6:00 p 63.2 63.2 63.4 62.8 1.0 6.0 WSW 0.00 29.955
08/29/2002 6:30 p 62.7 62.7 62.9 62.4 1.0 4.0 WSW 0.00 29.959
08/29/2002 7:00 p 61.9 61.9 62.5 61.6 1.0 5.0 WSW 0.00 29.961
08/29/2002 7:30 p 61.7 61.7 61.8 61.5 0.0 2.0 WSW 0.00 29.965
08/29/2002 8:00 p 61.4 61.4 61.6 61.2 0.0 4.0 WSW 0.00 29.968
08/29/2002 8:30 p 61.3 61.3 61.4 61.2 0.0 3.0 WSW 0.00 29.971
08/29/2002 9:00 p 61.3 61.3 61.4 61.1 0.0 3.0 WSW 0.00 29.978
08/29/2002 9:30 p 61.2 61.2 61.3 61.0 1.0 5.0 WSW 0.00 29.986
08/29/2002 10:00 p 61.2 61.2 61.3 61.0 0.0 5.0 WSW 0.00 29.985
08/29/2002 10:30 p 61.1 61.1 61.2 61.0 0.0 3.0 WSW 0.00 29.985
08/29/2002 11:00 p 61.0 61.0 61.2 60.9 0.0 4.0 WSW 0.00 29.991
08/29/2002 11:30 p 61.1 61.1 61.2 61.0 0.0 3.0 WSW 0.00 29.997
08/30/2002 12:00 a 61.2 61.2 61.3 61.1 0.0 3.0 WSW 0.00 29.997
08/30/2002 12:30 a 61.2 61.2 61.3 61.0 0.0 4.0 WSW 0.00 29.999
08/30/2002 1:00 a 61.0 61.0 61.1 60.8 0.0 4.0 WSW 0.00 29.997
08/30/2002 1:30 a 60.8 60.8 61.0 60.6 0.0 4.0 WSW 0.00 30.001
08/30/2002 2:00 a 60.8 60.8 60.9 60.7 0.0 2.0 WSW 0.00 30.002
08/30/2002 2:30 a 60.8 60.8 60.9 60.7 0.0 3.0 WSW 0.00 30.005
08/30/2002 3:00 a 60.8 60.8 60.9 60.6 0.0 3.0 WSW 0.00 30.004
08/30/2002 3:30 a 60.8 60.8 60.9 60.6 0.0 2.0 WSW 0.00 30.003
08/30/2002 4:00 a 60.9 60.9 61.0 60.7 0.0 2.0 WSW 0.00 30.002
08/30/2002 4:30 a 60.9 60.9 61.0 60.8 0.0 2.0 WSW 0.00 30.006
08/30/2002 5:00 a 60.9 60.9 61.1 60.6 0.0 2.0 WSW 0.00 30.011
08/30/2002 5:30 a 61.0 61.0 61.1 60.8 0.0 3.0 WSW 0.00 30.014
08/30/2002 6:00 a 61.0 61.0 61.1 60.9 0.0 2.0 WSW 0.00 30.017
08/30/2002 6:30 a 61.1 61.1 61.3 60.9 0.0 3.0 SW 0.00 30.035
08/30/2002 7:00 a 61.3 61.3 61.5 61.1 0.0 2.0 SW 0.00 30.043
08/30/2002 7:30 a 61.8 61.8 62.4 61.4 0.0 3.0 SW 0.00 30.060
08/30/2002 8:00 a 62.8 62.8 63.0 62.4 0.0 3.0 WSW 0.00 30.065
08/30/2002 8:30 a 62.8 62.8 63.4 62.5 0.0 4.0 WSW 0.00 30.072
08/30/2002 9:00 a 63.6 63.6 64.4 63.2 1.0 5.0 WSW 0.00 30.078
08/30/2002 9:30 a 63.8 63.8 64.2 63.4 1.0 5.0 WSW 0.00 30.085
08/30/2002 10:00 a 64.6 64.6 65.1 64.1 1.0 4.0 WSW 0.00 30.081
08/30/2002 10:30 a 66.0 66.0 67.5 64.5 1.0 4.0 WSW 0.00 30.085
08/30/2002 11:00 a 66.7 66.7 67.4 65.6 1.0 5.0 WSW 0.00 30.086
08/30/2002 11:30 a 66.5 66.5 67.4 66.0 0.0 3.0 WSW 0.00 30.086
08/30/2002 12:00 p 67.5 67.5 69.1 66.4 0.0 3.0 WSW 0.00 30.081
08/30/2002 12:30 p 69.8 69.8 70.6 68.9 0.0 4.0 WSW 0.00 30.088
08/30/2002 1:00 p 69.5 69.5 70.3 68.5 0.0 3.0 WSW 0.00 30.093
08/30/2002 1:30 p 69.6 69.6 70.2 68.7 1.0 4.0 WSW 0.00 30.092
08/30/2002 2:00 p 69.9 69.9 70.9 69.0 0.0 3.0 WSW 0.00 30.094
08/30/2002 2:30 p 69.9 69.9 71.2 68.7 0.0 3.0 WSW 0.00 30.091
08/30/2002 3:00 p 70.3 70.3 71.4 69.7 0.0 4.0 WSW 0.00 30.088
08/30/2002 3:30 p 71.3 71.3 72.3 70.1 0.0 2.0 SW 0.00 30.083
08/30/2002 4:00 p 71.2 71.2 72.4 70.4 0.0 3.0 SW 0.00 30.088
08/30/2002 4:30 p 71.1 71.1 72.6 70.6 0.0 1.0 SW 0.00 30.084
08/30/2002 5:00 p 71.7 71.7 72.8 70.6 0.0 2.0 SW 0.00 30.094
08/30/2002 5:30 p 71.8 71.8 72.5 70.6 0.0 2.0 SW 0.00 30.090
08/30/2002 6:00 p 71.7 71.7 72.4 70.6 0.0 2.0 SW 0.00 30.093
08/30/2002 6:30 p 71.3 71.3 72.6 70.6 0.0 0.0 --- 0.00 30.098
08/30/2002 7:00 p 71.0 71.0 72.6 69.8 0.0 0.0 --- 0.00 30.105
08/30/2002 7:30 p 68.9 68.9 69.7 67.8 0.0 0.0 --- 0.00 30.112
08/30/2002 8:00 p 66.7 66.7 67.8 65.8 0.0 0.0 --- 0.00 30.122
08/30/2002 8:30 p 65.1 65.1 65.8 64.6 0.0 0.0 --- 0.00 30.128
08/30/2002 9:00 p 64.1 64.1 64.8 63.4 0.0 0.0 --- 0.00 30.131
08/30/2002 9:30 p 63.1 63.1 63.5 62.7 0.0 0.0 --- 0.00 30.137
08/30/2002 10:00 p 62.4 62.4 62.7 62.1 0.0 0.0 --- 0.00 30.146
08/30/2002 10:30 p 61.9 61.9 62.3 61.5 0.0 0.0 --- 0.00 30.151
08/30/2002 11:00 p 61.6 61.6 61.9 61.2 0.0 0.0 --- 0.00 30.154
08/30/2002 11:30 p 61.2 61.2 61.8 60.5 0.0 0.0 --- 0.00 30.158
08/31/2002 12:00 a 60.6 60.6 60.9 60.3 0.0 0.0 --- 0.00 30.161
08/31/2002 12:30 a 60.3 60.3 60.5 60.1 0.0 0.0 --- 0.00 30.168
08/31/2002 1:00 a 60.1 60.1 60.3 59.8 0.0 0.0 --- 0.00 30.169
08/31/2002 1:30 a 59.8 59.8 60.0 59.6 0.0 0.0 --- 0.00 30.168
08/31/2002 2:00 a 59.4 59.4 60.1 59.0 0.0 0.0 --- 0.00 30.174
08/31/2002 2:30 a 59.1 59.1 59.4 58.8 0.0 0.0 --- 0.00 30.174
08/31/2002 3:00 a 58.8 58.8 59.2 58.5 0.0 0.0 --- 0.00 30.176
08/31/2002 3:30 a 58.2 58.2 58.5 57.9 0.0 0.0 --- 0.00 30.176
08/31/2002 4:00 a 57.9 57.9 58.3 57.6 0.0 0.0 --- 0.00 30.177
08/31/2002 4:30 a 57.5 57.5 57.8 57.2 0.0 0.0 --- 0.00 30.185
08/31/2002 5:00 a 57.4 57.4 57.6 57.2 0.0 0.0 --- 0.00 30.186
08/31/2002 5:30 a 57.6 57.6 58.1 57.2 0.0 0.0 --- 0.00 30.196
08/31/2002 6:00 a 58.0 58.0 58.2 57.7 0.0 0.0 --- 0.00 30.205
08/31/2002 6:30 a 58.0 58.0 58.1 57.7 0.0 0.0 --- 0.00 30.214
08/31/2002 7:00 a 58.4 58.4 58.7 58.0 0.0 0.0 --- 0.00 30.230
08/31/2002 7:30 a 58.8 58.8 60.0 58.4 0.0 0.0 --- 0.00 30.243
08/31/2002 8:00 a 61.9 61.9 64.0 60.0 0.0 1.0 SW 0.00 30.252
08/31/2002 8:30 a 65.6 65.6 66.8 64.1 0.0 2.0 SW 0.00 30.266
08/31/2002 9:00 a 67.8 67.8 68.9 66.8 0.0 2.0 SSE 0.00 30.277
08/31/2002 9:30 a 69.9 69.9 71.1 68.8 0.0 3.0 SW 0.00 30.289
08/31/2002 10:00 a 71.5 71.5 73.0 70.6 0.0 3.0 ESE 0.00 30.297
08/31/2002 10:30 a 73.8 73.8 74.6 72.6 0.0 5.0 ESE 0.00 30.301
08/31/2002 11:00 a 74.5 74.5 75.5 73.3 0.0 4.0 ESE 0.00 30.308
08/31/2002 11:30 a 74.1 74.1 76.6 72.7 1.0 5.0 E 0.00 30.315
08/31/2002 12:00 p 76.0 76.0 77.7 73.7 1.0 5.0 ESE 0.00 30.319
08/31/2002 12:30 p 73.2 73.2 73.8 72.7 0.0 3.0 ESE 0.00 30.316
08/31/2002 1:00 p 72.7 72.7 73.4 72.1 0.0 4.0 ESE 0.00 30.318
08/31/2002 1:30 p 75.4 75.4 77.9 72.9 1.0 5.0 ESE 0.00 30.326
08/31/2002 2:00 p 72.5 72.5 73.2 72.1 0.0 2.0 S 0.00 30.329
08/31/2002 2:30 p 71.6 71.6 72.5 70.9 0.0 3.0 S 0.00 30.323
08/31/2002 3:00 p 72.4 72.4 73.3 71.4 0.0 5.0 S 0.00 30.325
08/31/2002 3:30 p 71.7 71.7 72.8 71.0 0.0 2.0 S 0.00 30.325
08/31/2002 4:00 p 71.6 71.6 73.1 70.3 0.0 3.0 SSW 0.00 30.326
08/31/2002 4:30 p 69.9 69.9 71.2 69.3 0.0 4.0 SSW 0.00 30.329
08/31/2002 5:00 p 70.4 70.4 73.0 69.3 0.0 1.0 WSW 0.00 30.330
08/31/2002 5:30 p 69.3 69.3 70.6 68.6 0.0 5.0 ESE 0.00 30.331
08/31/2002 6:00 p 68.3 68.3 68.9 67.9 0.0 4.0 ESE 0.00 30.335
08/31/2002 6:30 p 67.7 67.7 67.9 67.5 0.0 2.0 SE 0.00 30.337
08/31/2002 7:00 p 67.2 67.2 67.6 66.5 0.0 3.0 SSE 0.00 30.344
08/31/2002 7:30 p 66.9 66.9 70.1 66.0 0.0 1.0 SSE 0.00 30.344
08/31/2002 8:00 p 68.2 68.2 69.8 67.1 0.0 1.0 SSE 0.00 30.341
08/31/2002 8:30 p 66.0 66.0 69.6 64.6 0.0 2.0 SSE 0.00 30.346
08/31/2002 9:00 p 66.5 66.5 68.3 65.0 0.0 3.0 ESE 0.00 30.350
08/31/2002 9:30 p 64.1 64.1 65.0 63.6 0.0 2.0 ESE 0.00 30.340
08/31/2002 10:00 p 63.6 63.6 63.7 63.5 0.0 1.0 SE 0.00 30.341
08/31/2002 10:30 p 63.6 63.6 63.8 63.4 0.0 1.0 SE 0.00 30.336
08/31/2002 11:00 p 63.5 63.5 63.7 63.4 0.0 2.0 SE 0.00 30.332
08/31/2002 11:30 p 63.4 63.4 63.5 63.2 0.0 3.0 SE 0.00 30.330